Terminal Aerodrome Forecast
Issued by NWS Blacksburg, VA

Current Version | Previous Version | Graphics & Text | Print | Product List | Glossary On
Versions: 1 2 3 4 5 6 7 8 9 10 11 12 13 14 15 16 17 18 19 20 21 22 23 24 25 26 27 28 29 30 31 32 33 34 35 36 37 38 39 40
368
FTUS41 KRNK 132023 AAA
TAFBLF
TAF AMD
KBLF 132023Z 1320/1418 30010G19KT 4SM -SN OVC019
      TEMPO 1320/1322 1 1/2SM -SN BR OVC010
     FM132300 32010KT P6SM -SN SCT025 OVC030
     FM140300 32008KT P6SM BKN040
     FM140700 32006KT P6SM SCT040
     FM141300 33004KT P6SM FEW250=

USA.gov is the U.S. government's official web portal to all federal, state and local government web resources and services.